sensor_id;sensor_type;location;lat;lon;timestamp;temperature;humidity
12557;DHT22;6344;49.932;8.308;2023-03-07T00:00:53;3.50;1.00
12557;DHT22;6344;49.932;8.308;2023-03-07T00:03:20;3.50;1.00
12557;DHT22;6344;49.932;8.308;2023-03-07T00:05:47;3.50;1.00
12557;DHT22;6344;49.932;8.308;2023-03-07T00:08:13;3.60;1.00
12557;DHT22;6344;49.932;8.308;2023-03-07T00:10:40;3.50;1.00
12557;DHT22;6344;49.932;8.308;2023-03-07T00:13:06;3.60;1.00
12557;DHT22;6344;49.932;8.308;2023-03-07T00:15:36;3.50;1.00
12557;DHT22;6344;49.932;8.308;2023-03-07T00:18:04;3.50;1.00
12557;DHT22;6344;49.932;8.308;2023-03-07T00:20:31;3.50;1.00
12557;DHT22;6344;49.932;8.308;2023-03-07T00:22:58;3.50;1.00
12557;DHT22;6344;49.932;8.308;2023-03-07T00:25:25;3.50;1.00
12557;DHT22;6344;49.932;8.308;2023-03-07T00:27:51;3.50;1.00
12557;DHT22;6344;49.932;8.308;2023-03-07T00:30:18;3.60;1.00
12557;DHT22;6344;49.932;8.308;2023-03-07T00:32:45;3.60;1.00
12557;DHT22;6344;49.932;8.308;2023-03-07T00:35:13;3.50;1.00
12557;DHT22;6344;49.932;8.308;2023-03-07T00:37:40;3.50;1.00
12557;DHT22;6344;49.932;8.308;2023-03-07T00:40:08;3.60;1.00
12557;DHT22;6344;49.932;8.308;2023-03-07T00:42:35;3.60;3.00
12557;DHT22;6344;49.932;8.308;2023-03-07T00:45:01;3.60;3.00
12557;DHT22;6344;49.932;8.308;2023-03-07T00:47:28;3.60;1.00
12557;DHT22;6344;49.932;8.308;2023-03-07T00:49:55;3.70;1.00
12557;DHT22;6344;49.932;8.308;2023-03-07T00:52:23;3.60;1.00
12557;DHT22;6344;49.932;8.308;2023-03-07T00:54:49;3.60;1.00
12557;DHT22;6344;49.932;8.308;2023-03-07T00:57:16;3.70;1.00
12557;DHT22;6344;49.932;8.308;2023-03-07T00:59:42;3.60;1.00
12557;DHT22;6344;49.932;8.308;2023-03-07T01:02:09;3.70;1.00
12557;DHT22;6344;49.932;8.308;2023-03-07T01:04:36;3.70;1.00
12557;DHT22;6344;49.932;8.308;2023-03-07T01:07:02;3.80;1.00
12557;DHT22;6344;49.932;8.308;2023-03-07T01:09:30;3.80;1.00
12557;DHT22;6344;49.932;8.308;2023-03-07T01:11:57;3.80;1.00
12557;DHT22;6344;49.932;8.308;2023-03-07T01:14:23;3.80;1.00
12557;DHT22;6344;49.932;8.308;2023-03-07T01:16:50;3.80;1.00
12557;DHT22;6344;49.932;8.308;2023-03-07T01:19:17;3.80;1.00
12557;DHT22;6344;49.932;8.308;2023-03-07T01:21:43;3.80;1.00
12557;DHT22;6344;49.932;8.308;2023-03-07T01:24:12;3.70;1.00
12557;DHT22;6344;49.932;8.308;2023-03-07T01:26:40;3.70;1.00
12557;DHT22;6344;49.932;8.308;2023-03-07T01:29:08;3.70;1.70
12557;DHT22;6344;49.932;8.308;2023-03-07T01:31:36;3.70;4.90
12557;DHT22;6344;49.932;8.308;2023-03-07T01:34:03;3.70;1.10
12557;DHT22;6344;49.932;8.308;2023-03-07T01:36:31;3.70;7.40
12557;DHT22;6344;49.932;8.308;2023-03-07T01:38:59;3.80;8.60
12557;DHT22;6344;49.932;8.308;2023-03-07T01:41:29;3.70;6.60
12557;DHT22;6344;49.932;8.308;2023-03-07T01:43:58;3.70;10.00
12557;DHT22;6344;49.932;8.308;2023-03-07T01:46:36;3.70;12.80
12557;DHT22;6344;49.932;8.308;2023-03-07T01:49:07;3.70;14.00
12557;DHT22;6344;49.932;8.308;2023-03-07T01:51:37;3.70;21.10
12557;DHT22;6344;49.932;8.308;2023-03-07T01:54:07;3.70;24.30
12557;DHT22;6344;49.932;8.308;2023-03-07T01:56:36;3.70;22.90
12557;DHT22;6344;49.932;8.308;2023-03-07T01:59:04;3.70;26.50
12557;DHT22;6344;49.932;8.308;2023-03-07T02:01:32;3.80;25.60
12557;DHT22;6344;49.932;8.308;2023-03-07T02:04:02;3.90;24.60
12557;DHT22;6344;49.932;8.308;2023-03-07T02:06:34;3.80;27.20
12557;DHT22;6344;49.932;8.308;2023-03-07T02:09:02;3.70;31.00
12557;DHT22;6344;49.932;8.308;2023-03-07T02:11:30;3.80;34.50
12557;DHT22;6344;49.932;8.308;2023-03-07T02:13:57;3.70;40.80
12557;DHT22;6344;49.932;8.308;2023-03-07T02:16:25;3.80;39.40
12557;DHT22;6344;49.932;8.308;2023-03-07T02:18:52;3.80;37.30
12557;DHT22;6344;49.932;8.308;2023-03-07T02:21:28;3.80;42.10
12557;DHT22;6344;49.932;8.308;2023-03-07T02:24:01;3.70;51.00
12557;DHT22;6344;49.932;8.308;2023-03-07T02:26:41;3.70;58.60
12557;DHT22;6344;49.932;8.308;2023-03-07T02:29:10;3.70;56.30
12557;DHT22;6344;49.932;8.308;2023-03-07T02:31:37;3.70;58.00
12557;DHT22;6344;49.932;8.308;2023-03-07T02:34:17;3.80;52.00
12557;DHT22;6344;49.932;8.308;2023-03-07T02:36:44;3.80;57.80
12557;DHT22;6344;49.932;8.308;2023-03-07T02:39:11;3.80;58.90
12557;DHT22;6344;49.932;8.308;2023-03-07T02:41:40;3.80;52.50
12557;DHT22;6344;49.932;8.308;2023-03-07T02:44:08;3.80;54.50
12557;DHT22;6344;49.932;8.308;2023-03-07T02:46:34;3.80;54.20
12557;DHT22;6344;49.932;8.308;2023-03-07T02:49:01;3.80;57.00
12557;DHT22;6344;49.932;8.308;2023-03-07T02:51:27;3.70;62.30
12557;DHT22;6344;49.932;8.308;2023-03-07T02:53:54;3.70;67.40
12557;DHT22;6344;49.932;8.308;2023-03-07T02:56:21;3.80;62.70
12557;DHT22;6344;49.932;8.308;2023-03-07T02:58:49;3.80;63.20
12557;DHT22;6344;49.932;8.308;2023-03-07T03:01:16;3.80;62.00
12557;DHT22;6344;49.932;8.308;2023-03-07T03:03:43;3.80;61.90
12557;DHT22;6344;49.932;8.308;2023-03-07T03:06:10;3.90;55.50
12557;DHT22;6344;49.932;8.308;2023-03-07T03:08:36;3.80;56.20
12557;DHT22;6344;49.932;8.308;2023-03-07T03:11:03;3.80;63.10
12557;DHT22;6344;49.932;8.308;2023-03-07T03:13:30;3.80;63.30
12557;DHT22;6344;49.932;8.308;2023-03-07T03:15:58;3.80;63.50
12557;DHT22;6344;49.932;8.308;2023-03-07T03:18:27;3.80;65.50
12557;DHT22;6344;49.932;8.308;2023-03-07T03:20:53;3.80;69.10
12557;DHT22;6344;49.932;8.308;2023-03-07T03:23:20;3.80;78.30
12557;DHT22;6344;49.932;8.308;2023-03-07T03:25:56;3.80;74.50
12557;DHT22;6344;49.932;8.308;2023-03-07T03:28:22;3.80;79.60
12557;DHT22;6344;49.932;8.308;2023-03-07T03:30:57;3.70;82.00
12557;DHT22;6344;49.932;8.308;2023-03-07T03:33:25;3.80;80.10
12557;DHT22;6344;49.932;8.308;2023-03-07T03:35:53;3.80;70.00
12557;DHT22;6344;49.932;8.308;2023-03-07T03:38:20;3.80;78.80
12557;DHT22;6344;49.932;8.308;2023-03-07T03:40:46;3.80;84.70
12557;DHT22;6344;49.932;8.308;2023-03-07T03:43:13;3.80;89.80
12557;DHT22;6344;49.932;8.308;2023-03-07T03:45:40;3.80;93.80
12557;DHT22;6344;49.932;8.308;2023-03-07T03:48:09;3.80;94.10
12557;DHT22;6344;49.932;8.308;2023-03-07T03:50:36;3.70;96.40
12557;DHT22;6344;49.932;8.308;2023-03-07T03:53:02;3.80;97.90
12557;DHT22;6344;49.932;8.308;2023-03-07T03:55:29;3.80;99.20
12557;DHT22;6344;49.932;8.308;2023-03-07T03:57:55;3.80;94.40
12557;DHT22;6344;49.932;8.308;2023-03-07T04:00:23;3.80;97.50
12557;DHT22;6344;49.932;8.308;2023-03-07T04:02:50;3.90;94.40
12557;DHT22;6344;49.932;8.308;2023-03-07T04:05:18;3.80;95.50
12557;DHT22;6344;49.932;8.308;2023-03-07T04:07:45;3.90;93.80
12557;DHT22;6344;49.932;8.308;2023-03-07T04:10:11;3.90;93.70
12557;DHT22;6344;49.932;8.308;2023-03-07T04:12:38;3.90;85.60
12557;DHT22;6344;49.932;8.308;2023-03-07T04:15:06;3.90;82.40
12557;DHT22;6344;49.932;8.308;2023-03-07T04:17:33;3.90;88.30
12557;DHT22;6344;49.932;8.308;2023-03-07T04:20:00;3.90;88.80
12557;DHT22;6344;49.932;8.308;2023-03-07T04:22:27;3.90;89.60
12557;DHT22;6344;49.932;8.308;2023-03-07T04:24:54;3.80;91.10
12557;DHT22;6344;49.932;8.308;2023-03-07T04:27:21;3.80;87.80
12557;DHT22;6344;49.932;8.308;2023-03-07T04:29:47;3.90;86.80
12557;DHT22;6344;49.932;8.308;2023-03-07T04:32:14;3.90;76.00
12557;DHT22;6344;49.932;8.308;2023-03-07T04:34:40;3.90;71.60
12557;DHT22;6344;49.932;8.308;2023-03-07T04:37:07;3.80;80.60
12557;DHT22;6344;49.932;8.308;2023-03-07T04:39:35;3.90;79.90
12557;DHT22;6344;49.932;8.308;2023-03-07T04:42:02;3.80;79.80
12557;DHT22;6344;49.932;8.308;2023-03-07T04:44:28;3.80;79.80
12557;DHT22;6344;49.932;8.308;2023-03-07T04:46:55;3.90;76.70
12557;DHT22;6344;49.932;8.308;2023-03-07T04:49:22;3.90;73.50
12557;DHT22;6344;49.932;8.308;2023-03-07T04:51:48;3.90;72.00
12557;DHT22;6344;49.932;8.308;2023-03-07T04:54:15;3.90;70.80
12557;DHT22;6344;49.932;8.308;2023-03-07T04:56:43;3.90;58.50
12557;DHT22;6344;49.932;8.308;2023-03-07T04:59:09;3.90;62.30
12557;DHT22;6344;49.932;8.308;2023-03-07T05:01:36;3.90;62.90
12557;DHT22;6344;49.932;8.308;2023-03-07T05:04:03;3.80;64.60
12557;DHT22;6344;49.932;8.308;2023-03-07T05:06:29;3.80;69.00
12557;DHT22;6344;49.932;8.308;2023-03-07T05:08:56;3.80;68.30
12557;DHT22;6344;49.932;8.308;2023-03-07T05:11:22;3.90;60.20
12557;DHT22;6344;49.932;8.308;2023-03-07T05:13:50;3.80;65.60
12557;DHT22;6344;49.932;8.308;2023-03-07T05:16:17;3.90;67.00
12557;DHT22;6344;49.932;8.308;2023-03-07T05:18:44;3.90;59.40
12557;DHT22;6344;49.932;8.308;2023-03-07T05:21:10;4.00;55.80
12557;DHT22;6344;49.932;8.308;2023-03-07T05:23:37;3.90;53.30
12557;DHT22;6344;49.932;8.308;2023-03-07T05:26:04;3.90;60.20
12557;DHT22;6344;49.932;8.308;2023-03-07T05:28:30;3.90;50.90
12557;DHT22;6344;49.932;8.308;2023-03-07T05:30:59;3.90;54.30
12557;DHT22;6344;49.932;8.308;2023-03-07T05:33:26;3.90;54.60
12557;DHT22;6344;49.932;8.308;2023-03-07T05:35:53;3.90;52.90
12557;DHT22;6344;49.932;8.308;2023-03-07T05:38:20;3.90;57.60
12557;DHT22;6344;49.932;8.308;2023-03-07T05:40:46;3.90;53.70
12557;DHT22;6344;49.932;8.308;2023-03-07T05:43:13;3.90;52.00
12557;DHT22;6344;49.932;8.308;2023-03-07T05:45:40;3.90;54.00
12557;DHT22;6344;49.932;8.308;2023-03-07T05:48:08;3.90;49.90
12557;DHT22;6344;49.932;8.308;2023-03-07T05:50:36;3.90;49.00
12557;DHT22;6344;49.932;8.308;2023-03-07T05:53:03;3.90;47.10
12557;DHT22;6344;49.932;8.308;2023-03-07T05:55:30;3.90;48.10
12557;DHT22;6344;49.932;8.308;2023-03-07T05:57:57;3.90;47.90
12557;DHT22;6344;49.932;8.308;2023-03-07T06:00:24;4.00;45.40
12557;DHT22;6344;49.932;8.308;2023-03-07T06:02:51;3.90;46.00
12557;DHT22;6344;49.932;8.308;2023-03-07T06:05:19;4.00;43.80
12557;DHT22;6344;49.932;8.308;2023-03-07T06:07:46;3.90;42.50
12557;DHT22;6344;49.932;8.308;2023-03-07T06:10:12;4.00;35.70
12557;DHT22;6344;49.932;8.308;2023-03-07T06:12:39;4.00;33.70
12557;DHT22;6344;49.932;8.308;2023-03-07T06:15:06;4.00;31.60
12557;DHT22;6344;49.932;8.308;2023-03-07T06:17:34;4.00;30.40
12557;DHT22;6344;49.932;8.308;2023-03-07T06:20:01;4.00;30.20
12557;DHT22;6344;49.932;8.308;2023-03-07T06:22:29;3.90;30.60
12557;DHT22;6344;49.932;8.308;2023-03-07T06:24:56;4.00;26.60
12557;DHT22;6344;49.932;8.308;2023-03-07T06:27:23;4.00;27.40
12557;DHT22;6344;49.932;8.308;2023-03-07T06:29:49;4.00;25.80
12557;DHT22;6344;49.932;8.308;2023-03-07T06:32:16;4.10;23.70
12557;DHT22;6344;49.932;8.308;2023-03-07T06:34:42;4.00;22.10
12557;DHT22;6344;49.932;8.308;2023-03-07T06:37:09;4.10;19.30
12557;DHT22;6344;49.932;8.308;2023-03-07T06:39:37;4.10;18.50
12557;DHT22;6344;49.932;8.308;2023-03-07T06:42:04;4.10;16.40
12557;DHT22;6344;49.932;8.308;2023-03-07T06:44:31;4.20;12.30
12557;DHT22;6344;49.932;8.308;2023-03-07T06:46:58;4.20;10.90
12557;DHT22;6344;49.932;8.308;2023-03-07T06:49:24;4.20;10.30
12557;DHT22;6344;49.932;8.308;2023-03-07T06:51:51;4.20;10.60
12557;DHT22;6344;49.932;8.308;2023-03-07T06:54:17;4.30;6.00
12557;DHT22;6344;49.932;8.308;2023-03-07T06:56:45;4.30;4.90
12557;DHT22;6344;49.932;8.308;2023-03-07T06:59:12;4.30;4.10
12557;DHT22;6344;49.932;8.308;2023-03-07T07:01:39;4.40;1.00
12557;DHT22;6344;49.932;8.308;2023-03-07T07:04:06;4.40;1.60
12557;DHT22;6344;49.932;8.308;2023-03-07T07:06:32;4.40;1.00
12557;DHT22;6344;49.932;8.308;2023-03-07T07:08:59;4.50;1.00
12557;DHT22;6344;49.932;8.308;2023-03-07T07:11:26;4.50;1.00
12557;DHT22;6344;49.932;8.308;2023-03-07T07:13:54;4.50;1.00
12557;DHT22;6344;49.932;8.308;2023-03-07T07:16:20;4.70;1.00
12557;DHT22;6344;49.932;8.308;2023-03-07T07:18:49;4.70;1.00
12557;DHT22;6344;49.932;8.308;2023-03-07T07:21:16;4.70;1.00
12557;DHT22;6344;49.932;8.308;2023-03-07T07:23:42;4.80;1.00
12557;DHT22;6344;49.932;8.308;2023-03-07T07:26:09;5.00;1.00
12557;DHT22;6344;49.932;8.308;2023-03-07T07:28:36;5.00;1.00
12557;DHT22;6344;49.932;8.308;2023-03-07T07:31:04;5.10;1.00
12557;DHT22;6344;49.932;8.308;2023-03-07T07:33:31;5.30;1.00
12557;DHT22;6344;49.932;8.308;2023-03-07T07:35:58;5.40;1.00
12557;DHT22;6344;49.932;8.308;2023-03-07T07:38:24;5.40;1.00
12557;DHT22;6344;49.932;8.308;2023-03-07T07:40:51;5.50;1.00
12557;DHT22;6344;49.932;8.308;2023-03-07T07:43:18;5.60;1.00
12557;DHT22;6344;49.932;8.308;2023-03-07T07:45:44;5.70;1.00
12557;DHT22;6344;49.932;8.308;2023-03-07T07:48:12;5.90;1.00
12557;DHT22;6344;49.932;8.308;2023-03-07T07:50:39;5.90;1.00
12557;DHT22;6344;49.932;8.308;2023-03-07T07:53:05;6.10;1.00
12557;DHT22;6344;49.932;8.308;2023-03-07T07:55:32;6.20;1.00
12557;DHT22;6344;49.932;8.308;2023-03-07T07:57:59;6.50;1.00
12557;DHT22;6344;49.932;8.308;2023-03-07T08:00:25;6.70;1.00
12557;DHT22;6344;49.932;8.308;2023-03-07T08:02:52;6.70;1.00
12557;DHT22;6344;49.932;8.308;2023-03-07T08:05:20;6.80;1.00
12557;DHT22;6344;49.932;8.308;2023-03-07T08:07:48;7.00;1.00
12557;DHT22;6344;49.932;8.308;2023-03-07T08:10:15;6.70;1.00
12557;DHT22;6344;49.932;8.308;2023-03-07T08:12:42;6.80;1.00
12557;DHT22;6344;49.932;8.308;2023-03-07T08:15:10;6.80;1.00
12557;DHT22;6344;49.932;8.308;2023-03-07T08:17:37;6.80;1.00
12557;DHT22;6344;49.932;8.308;2023-03-07T08:20:04;6.90;1.00
12557;DHT22;6344;49.932;8.308;2023-03-07T08:22:35;7.20;1.00
12557;DHT22;6344;49.932;8.308;2023-03-07T08:25:03;7.30;1.00
12557;DHT22;6344;49.932;8.308;2023-03-07T08:27:30;7.40;1.00
12557;DHT22;6344;49.932;8.308;2023-03-07T08:29:56;7.40;1.00
12557;DHT22;6344;49.932;8.308;2023-03-07T08:32:23;7.50;1.00
12557;DHT22;6344;49.932;8.308;2023-03-07T08:34:50;7.40;1.00
12557;DHT22;6344;49.932;8.308;2023-03-07T08:37:16;7.40;1.00
12557;DHT22;6344;49.932;8.308;2023-03-07T08:39:44;7.60;1.00
12557;DHT22;6344;49.932;8.308;2023-03-07T08:42:11;7.50;1.00
12557;DHT22;6344;49.932;8.308;2023-03-07T08:44:37;7.30;1.00
12557;DHT22;6344;49.932;8.308;2023-03-07T08:47:04;7.30;1.00
12557;DHT22;6344;49.932;8.308;2023-03-07T08:49:31;7.30;1.00
12557;DHT22;6344;49.932;8.308;2023-03-07T08:51:57;7.20;1.00
12557;DHT22;6344;49.932;8.308;2023-03-07T08:54:24;7.30;1.00
12557;DHT22;6344;49.932;8.308;2023-03-07T08:56:54;7.50;1.00
12557;DHT22;6344;49.932;8.308;2023-03-07T08:59:20;7.80;1.00
12557;DHT22;6344;49.932;8.308;2023-03-07T09:01:47;8.10;1.00
12557;DHT22;6344;49.932;8.308;2023-03-07T09:04:14;7.80;1.00
12557;DHT22;6344;49.932;8.308;2023-03-07T09:06:40;8.30;1.00
12557;DHT22;6344;49.932;8.308;2023-03-07T09:09:07;8.20;1.00
12557;DHT22;6344;49.932;8.308;2023-03-07T09:11:34;8.10;1.00
12557;DHT22;6344;49.932;8.308;2023-03-07T09:14:02;7.80;1.00
12557;DHT22;6344;49.932;8.308;2023-03-07T09:16:28;8.00;1.00
12557;DHT22;6344;49.932;8.308;2023-03-07T09:18:55;7.80;1.00
12557;DHT22;6344;49.932;8.308;2023-03-07T09:21:22;7.70;1.00
12557;DHT22;6344;49.932;8.308;2023-03-07T09:23:48;7.70;1.00
12557;DHT22;6344;49.932;8.308;2023-03-07T09:26:15;7.80;1.00
12557;DHT22;6344;49.932;8.308;2023-03-07T09:28:42;8.30;1.00
12557;DHT22;6344;49.932;8.308;2023-03-07T09:31:12;8.50;1.00
12557;DHT22;6344;49.932;8.308;2023-03-07T09:33:39;8.10;1.00
12557;DHT22;6344;49.932;8.308;2023-03-07T09:36:07;8.20;1.00
12557;DHT22;6344;49.932;8.308;2023-03-07T09:38:35;8.40;1.00
12557;DHT22;6344;49.932;8.308;2023-03-07T09:41:08;9.00;1.00
12557;DHT22;6344;49.932;8.308;2023-03-07T09:43:43;9.20;1.00
12557;DHT22;6344;49.932;8.308;2023-03-07T09:46:19;8.90;1.00
12557;DHT22;6344;49.932;8.308;2023-03-07T09:49:15;9.10;1.00
12557;DHT22;6344;49.932;8.308;2023-03-07T09:51:44;8.90;1.00
12557;DHT22;6344;49.932;8.308;2023-03-07T09:54:14;8.90;1.00
12557;DHT22;6344;49.932;8.308;2023-03-07T09:56:45;8.50;1.00
12557;DHT22;6344;49.932;8.308;2023-03-07T09:59:16;8.70;1.00
12557;DHT22;6344;49.932;8.308;2023-03-07T10:01:49;8.80;1.00
12557;DHT22;6344;49.932;8.308;2023-03-07T10:04:20;8.80;1.00
12557;DHT22;6344;49.932;8.308;2023-03-07T10:06:53;8.70;1.00
12557;DHT22;6344;49.932;8.308;2023-03-07T10:09:22;8.40;1.00
12557;DHT22;6344;49.932;8.308;2023-03-07T10:12:06;8.50;1.00
12557;DHT22;6344;49.932;8.308;2023-03-07T10:14:48;8.80;1.00
12557;DHT22;6344;49.932;8.308;2023-03-07T10:17:26;8.80;1.00
12557;DHT22;6344;49.932;8.308;2023-03-07T10:20:05;8.90;1.00
12557;DHT22;6344;49.932;8.308;2023-03-07T10:22:36;9.10;1.00
12557;DHT22;6344;49.932;8.308;2023-03-07T10:25:15;9.20;1.00
12557;DHT22;6344;49.932;8.308;2023-03-07T10:27:46;8.70;1.00
12557;DHT22;6344;49.932;8.308;2023-03-07T10:30:16;8.90;1.00
12557;DHT22;6344;49.932;8.308;2023-03-07T10:32:46;9.40;1.00
12557;DHT22;6344;49.932;8.308;2023-03-07T10:35:16;9.60;1.00
12557;DHT22;6344;49.932;8.308;2023-03-07T10:37:47;9.90;1.00
12557;DHT22;6344;49.932;8.308;2023-03-07T10:40:21;9.70;1.00
12557;DHT22;6344;49.932;8.308;2023-03-07T10:42:48;9.80;1.00
12557;DHT22;6344;49.932;8.308;2023-03-07T10:45:16;10.10;1.00
12557;DHT22;6344;49.932;8.308;2023-03-07T10:47:42;10.40;1.00
12557;DHT22;6344;49.932;8.308;2023-03-07T10:50:32;10.70;1.00
12557;DHT22;6344;49.932;8.308;2023-03-07T10:53:03;10.90;1.00
12557;DHT22;6344;49.932;8.308;2023-03-07T10:55:37;11.30;1.00
12557;DHT22;6344;49.932;8.308;2023-03-07T10:58:19;11.10;1.00
12557;DHT22;6344;49.932;8.308;2023-03-07T11:00:57;11.50;1.00
12557;DHT22;6344;49.932;8.308;2023-03-07T11:03:26;10.80;1.00
12557;DHT22;6344;49.932;8.308;2023-03-07T11:05:56;10.80;1.00
12557;DHT22;6344;49.932;8.308;2023-03-07T11:08:28;10.70;1.00
12557;DHT22;6344;49.932;8.308;2023-03-07T11:10:56;10.00;1.00
12557;DHT22;6344;49.932;8.308;2023-03-07T11:13:23;10.20;1.00
12557;DHT22;6344;49.932;8.308;2023-03-07T11:15:50;10.80;1.00
12557;DHT22;6344;49.932;8.308;2023-03-07T11:18:25;10.20;1.00
12557;DHT22;6344;49.932;8.308;2023-03-07T11:20:52;10.00;1.00
12557;DHT22;6344;49.932;8.308;2023-03-07T11:23:22;9.70;1.00
12557;DHT22;6344;49.932;8.308;2023-03-07T11:25:50;9.80;1.00
12557;DHT22;6344;49.932;8.308;2023-03-07T11:28:35;10.30;1.00
12557;DHT22;6344;49.932;8.308;2023-03-07T11:31:10;10.70;1.00
12557;DHT22;6344;49.932;8.308;2023-03-07T11:33:48;11.10;1.00
12557;DHT22;6344;49.932;8.308;2023-03-07T11:36:18;10.80;1.00
12557;DHT22;6344;49.932;8.308;2023-03-07T11:38:56;10.60;1.00
12557;DHT22;6344;49.932;8.308;2023-03-07T11:41:27;10.70;1.00
12557;DHT22;6344;49.932;8.308;2023-03-07T11:44:04;10.20;1.00
12557;DHT22;6344;49.932;8.308;2023-03-07T11:46:47;10.00;1.00
12557;DHT22;6344;49.932;8.308;2023-03-07T11:49:28;9.90;1.00
12557;DHT22;6344;49.932;8.308;2023-03-07T11:52:06;9.90;1.00
12557;DHT22;6344;49.932;8.308;2023-03-07T11:54:43;9.90;1.00
12557;DHT22;6344;49.932;8.308;2023-03-07T11:57:18;9.70;1.00
12557;DHT22;6344;49.932;8.308;2023-03-07T12:00:13;9.40;1.00
12557;DHT22;6344;49.932;8.308;2023-03-07T12:02:58;9.20;1.00
12557;DHT22;6344;49.932;8.308;2023-03-07T12:05:44;9.20;1.00
12557;DHT22;6344;49.932;8.308;2023-03-07T12:08:31;9.30;1.00
12557;DHT22;6344;49.932;8.308;2023-03-07T12:11:10;9.20;1.00
12557;DHT22;6344;49.932;8.308;2023-03-07T12:13:44;9.10;1.00
12557;DHT22;6344;49.932;8.308;2023-03-07T12:16:19;9.00;1.00
12557;DHT22;6344;49.932;8.308;2023-03-07T12:19:03;9.10;1.00
12557;DHT22;6344;49.932;8.308;2023-03-07T12:21:42;9.20;1.00
12557;DHT22;6344;49.932;8.308;2023-03-07T12:24:18;9.50;1.00
12557;DHT22;6344;49.932;8.308;2023-03-07T12:26:52;9.50;1.00
12557;DHT22;6344;49.932;8.308;2023-03-07T12:29:30;9.70;1.00
12557;DHT22;6344;49.932;8.308;2023-03-07T12:32:01;9.50;1.00
12557;DHT22;6344;49.932;8.308;2023-03-07T12:34:33;9.30;1.00
12557;DHT22;6344;49.932;8.308;2023-03-07T12:37:04;9.00;1.00
12557;DHT22;6344;49.932;8.308;2023-03-07T12:39:43;8.90;1.00
12557;DHT22;6344;49.932;8.308;2023-03-07T12:42:21;8.80;1.00
12557;DHT22;6344;49.932;8.308;2023-03-07T12:44:55;8.70;1.00
12557;DHT22;6344;49.932;8.308;2023-03-07T12:47:28;8.60;1.00
12557;DHT22;6344;49.932;8.308;2023-03-07T12:50:00;8.50;1.00
12557;DHT22;6344;49.932;8.308;2023-03-07T12:52:35;8.30;1.00
12557;DHT22;6344;49.932;8.308;2023-03-07T12:55:17;8.30;1.00
12557;DHT22;6344;49.932;8.308;2023-03-07T12:57:52;8.30;1.00
12557;DHT22;6344;49.932;8.308;2023-03-07T13:00:21;8.10;1.00
12557;DHT22;6344;49.932;8.308;2023-03-07T13:02:55;8.10;1.00
12557;DHT22;6344;49.932;8.308;2023-03-07T13:05:23;8.20;1.00
12557;DHT22;6344;49.932;8.308;2023-03-07T13:07:51;8.20;1.00
12557;DHT22;6344;49.932;8.308;2023-03-07T13:10:20;8.30;1.00
12557;DHT22;6344;49.932;8.308;2023-03-07T13:12:49;8.40;1.00
12557;DHT22;6344;49.932;8.308;2023-03-07T13:16:00;8.40;1.00
12557;DHT22;6344;49.932;8.308;2023-03-07T13:18:28;8.60;1.00
12557;DHT22;6344;49.932;8.308;2023-03-07T13:21:12;8.60;1.00
12557;DHT22;6344;49.932;8.308;2023-03-07T13:23:39;8.60;1.00
12557;DHT22;6344;49.932;8.308;2023-03-07T13:26:11;8.60;1.00
12557;DHT22;6344;49.932;8.308;2023-03-07T13:28:54;8.40;1.00
12557;DHT22;6344;49.932;8.308;2023-03-07T13:31:37;8.40;1.00
12557;DHT22;6344;49.932;8.308;2023-03-07T13:34:41;8.40;1.00
12557;DHT22;6344;49.932;8.308;2023-03-07T13:37:42;8.60;1.00
12557;DHT22;6344;49.932;8.308;2023-03-07T13:40:25;8.40;1.00
12557;DHT22;6344;49.932;8.308;2023-03-07T13:42:53;8.50;1.00
12557;DHT22;6344;49.932;8.308;2023-03-07T13:45:46;8.40;1.00
12557;DHT22;6344;49.932;8.308;2023-03-07T13:51:15;8.20;1.00
12557;DHT22;6344;49.932;8.308;2023-03-07T13:53:44;8.00;1.00
12557;DHT22;6344;49.932;8.308;2023-03-07T13:56:18;7.80;1.00
12557;DHT22;6344;49.932;8.308;2023-03-07T13:58:53;7.70;1.00
12557;DHT22;6344;49.932;8.308;2023-03-07T14:01:23;7.80;1.00
12557;DHT22;6344;49.932;8.308;2023-03-07T14:03:52;7.80;1.00
12557;DHT22;6344;49.932;8.308;2023-03-07T14:06:24;8.10;1.00
12557;DHT22;6344;49.932;8.308;2023-03-07T14:08:53;8.10;1.00
12557;DHT22;6344;49.932;8.308;2023-03-07T14:11:23;8.10;1.00
12557;DHT22;6344;49.932;8.308;2023-03-07T14:16:57;8.20;1.00
12557;DHT22;6344;49.932;8.308;2023-03-07T14:19:39;8.00;1.00
12557;DHT22;6344;49.932;8.308;2023-03-07T14:22:19;7.90;1.00
12557;DHT22;6344;49.932;8.308;2023-03-07T14:25:10;7.80;1.00
12557;DHT22;6344;49.932;8.308;2023-03-07T14:27:54;7.70;1.00
12557;DHT22;6344;49.932;8.308;2023-03-07T14:30:21;7.70;1.00
12557;DHT22;6344;49.932;8.308;2023-03-07T14:32:48;7.70;1.00
12557;DHT22;6344;49.932;8.308;2023-03-07T14:35:32;7.60;1.00
12557;DHT22;6344;49.932;8.308;2023-03-07T14:38:00;7.60;1.00
12557;DHT22;6344;49.932;8.308;2023-03-07T14:40:32;7.60;1.00
12557;DHT22;6344;49.932;8.308;2023-03-07T14:43:14;7.40;1.00
12557;DHT22;6344;49.932;8.308;2023-03-07T14:45:49;7.40;1.00
12557;DHT22;6344;49.932;8.308;2023-03-07T14:48:33;7.30;1.00
12557;DHT22;6344;49.932;8.308;2023-03-07T14:51:09;7.30;1.00
12557;DHT22;6344;49.932;8.308;2023-03-07T14:53:39;7.40;1.00
12557;DHT22;6344;49.932;8.308;2023-03-07T14:56:07;7.40;1.00
12557;DHT22;6344;49.932;8.308;2023-03-07T14:58:43;7.40;1.00
12557;DHT22;6344;49.932;8.308;2023-03-07T15:01:14;7.40;1.00
12557;DHT22;6344;49.932;8.308;2023-03-07T15:03:45;7.50;1.00
12557;DHT22;6344;49.932;8.308;2023-03-07T15:06:14;7.80;1.00
12557;DHT22;6344;49.932;8.308;2023-03-07T15:08:42;7.80;1.00
12557;DHT22;6344;49.932;8.308;2023-03-07T15:11:14;7.80;1.00
12557;DHT22;6344;49.932;8.308;2023-03-07T15:13:44;7.90;1.00
12557;DHT22;6344;49.932;8.308;2023-03-07T15:16:16;7.90;1.00
12557;DHT22;6344;49.932;8.308;2023-03-07T15:18:47;7.70;1.00
12557;DHT22;6344;49.932;8.308;2023-03-07T15:21:18;7.70;1.00
12557;DHT22;6344;49.932;8.308;2023-03-07T15:23:51;7.50;1.00
12557;DHT22;6344;49.932;8.308;2023-03-07T15:26:22;7.50;1.00
12557;DHT22;6344;49.932;8.308;2023-03-07T15:28:49;7.60;1.00
12557;DHT22;6344;49.932;8.308;2023-03-07T15:31:23;7.70;1.00
12557;DHT22;6344;49.932;8.308;2023-03-07T15:33:49;7.80;1.00
12557;DHT22;6344;49.932;8.308;2023-03-07T15:36:21;7.80;1.00
12557;DHT22;6344;49.932;8.308;2023-03-07T15:38:52;7.80;1.00
12557;DHT22;6344;49.932;8.308;2023-03-07T15:41:27;7.90;1.00
12557;DHT22;6344;49.932;8.308;2023-03-07T15:44:05;7.70;1.00
12557;DHT22;6344;49.932;8.308;2023-03-07T15:46:33;7.60;1.00
12557;DHT22;6344;49.932;8.308;2023-03-07T15:49:00;7.60;1.00
12557;DHT22;6344;49.932;8.308;2023-03-07T15:51:34;7.60;1.00
12557;DHT22;6344;49.932;8.308;2023-03-07T15:54:14;7.60;1.00
12557;DHT22;6344;49.932;8.308;2023-03-07T15:56:45;7.60;1.00
12557;DHT22;6344;49.932;8.308;2023-03-07T15:59:17;7.60;1.00
12557;DHT22;6344;49.932;8.308;2023-03-07T16:01:45;7.70;1.00
12557;DHT22;6344;49.932;8.308;2023-03-07T16:04:34;7.70;1.00
12557;DHT22;6344;49.932;8.308;2023-03-07T16:07:01;7.60;1.00
12557;DHT22;6344;49.932;8.308;2023-03-07T16:09:29;7.60;1.00
12557;DHT22;6344;49.932;8.308;2023-03-07T16:11:56;7.40;1.00
12557;DHT22;6344;49.932;8.308;2023-03-07T16:14:24;7.40;1.00
12557;DHT22;6344;49.932;8.308;2023-03-07T16:16:53;7.50;1.00
12557;DHT22;6344;49.932;8.308;2023-03-07T16:19:20;7.30;1.00
12557;DHT22;6344;49.932;8.308;2023-03-07T16:21:47;7.20;1.00
12557;DHT22;6344;49.932;8.308;2023-03-07T16:24:14;7.10;1.00
12557;DHT22;6344;49.932;8.308;2023-03-07T16:26:45;7.00;1.00
12557;DHT22;6344;49.932;8.308;2023-03-07T16:29:13;7.00;1.00
12557;DHT22;6344;49.932;8.308;2023-03-07T16:31:40;7.00;1.00
12557;DHT22;6344;49.932;8.308;2023-03-07T16:34:13;7.00;1.00
12557;DHT22;6344;49.932;8.308;2023-03-07T16:36:40;6.90;1.00